Es Castell, Spain
Current Conditions -  °F | °C
As of 12:30 AM on Saturday 25 Oct 2014 (Local Time) from LEMH Reporting Station
Clear Clear  
Wind Chill: 63°   Ceiling: Unl
Heat Index: 63°   Visibility: 6mi
Dew Point: 55°   Wind: 5mph
Humidity: 77%   Direction: 310°NW
Pressure: 30.03"   Gusts: NA
Location:  39.88°N, 4.29°E
Report Text: LEMH 242230Z 31004KT 280V340 CAVOK 17/13 Q1017
Loading
Personal Weather Stations






























Interactive Weather Map
Tropical Storm Tracking
New forecast layout! Learn more

10-Day Weather Forecast

Advertisements
Track Severe Weather on mobile